createdAt,value
2023-04-21T00:02:00.108Z,99476.66
2023-04-21T00:04:30.728Z,99488.25
2023-04-21T00:07:03.733Z,99486.50
2023-04-21T00:09:34.476Z,99480.03
2023-04-21T00:12:06.390Z,99490.63
2023-04-21T00:14:43.958Z,99494.38
2023-04-21T00:17:13.637Z,99484.53
2023-04-21T00:19:42.336Z,99491.84
2023-04-21T00:22:15.121Z,99479.75
2023-04-21T00:24:44.341Z,99483.13
2023-04-21T00:27:19.521Z,99481.84
2023-04-21T00:29:51.913Z,99475.50
2023-04-21T00:32:21.646Z,99470.69
2023-04-21T00:34:52.321Z,99474.34
2023-04-21T00:37:24.630Z,99471.97
2023-04-21T00:39:53.241Z,99480.03
2023-04-21T00:42:30.245Z,99474.22
2023-04-21T00:45:12.033Z,99481.63
2023-04-21T00:47:43.675Z,99470.84
2023-04-21T00:50:21.261Z,99477.31
2023-04-21T00:52:53.457Z,99477.22
2023-04-21T00:55:22.649Z,99482.00
2023-04-21T00:57:52.348Z,99481.22
2023-04-21T01:00:22.731Z,99479.63
2023-04-21T01:02:57.008Z,99478.13
2023-04-21T01:05:29.447Z,99479.00
2023-04-21T01:08:00.301Z,99480.59
2023-04-21T01:10:43.390Z,99481.56
2023-04-21T01:13:24.452Z,99478.44
2023-04-21T01:16:03.335Z,99485.78
2023-04-21T01:18:40.068Z,99483.03
2023-04-21T01:21:08.978Z,99491.44
2023-04-21T01:23:47.779Z,99487.56
2023-04-21T01:26:28.114Z,99466.41
2023-04-21T01:29:01.384Z,99476.28
2023-04-21T01:31:30.304Z,99474.59
2023-04-21T01:34:00.250Z,99475.78
2023-04-21T01:36:32.242Z,99482.31
2023-04-21T01:39:06.645Z,99479.09
2023-04-21T01:41:40.629Z,99480.25
2023-04-21T01:44:18.435Z,99478.41
2023-04-21T01:46:50.069Z,99478.25
2023-04-21T01:49:21.563Z,99480.53
2023-04-21T01:51:51.236Z,99484.03
2023-04-21T01:54:29.187Z,99479.75
2023-04-21T01:57:06.209Z,99475.72
2023-04-21T01:59:39.799Z,99474.78
2023-04-21T02:02:08.607Z,99476.00
2023-04-21T02:04:38.128Z,99472.22
2023-04-21T02:07:10.909Z,99472.47
2023-04-21T02:09:51.993Z,99479.25
2023-04-21T02:12:21.126Z,99466.63
2023-04-21T02:14:53.280Z,99471.56
2023-04-21T02:17:23.339Z,99471.03
2023-04-21T02:19:53.125Z,99470.63
2023-04-21T02:22:29.587Z,99467.03
2023-04-21T02:25:03.158Z,99467.81
2023-04-21T02:27:33.641Z,99462.59
2023-04-21T02:30:03.983Z,99469.66
2023-04-21T02:32:33.872Z,99463.41
2023-04-21T02:35:03.064Z,99473.19
2023-04-21T02:37:34.441Z,99468.00
2023-04-21T02:40:07.138Z,99469.75
2023-04-21T02:42:38.038Z,99467.34
2023-04-21T02:45:08.548Z,99466.94
2023-04-21T02:47:37.404Z,99466.56
2023-04-21T02:50:08.096Z,99459.47
2023-04-21T02:52:37.875Z,99471.13
2023-04-21T02:55:22.679Z,99471.03
2023-04-21T02:57:56.927Z,99465.41
2023-04-21T03:00:29.026Z,99475.28
2023-04-21T03:02:59.808Z,99481.28
2023-04-21T03:05:33.317Z,99483.72
2023-04-21T03:08:09.788Z,99474.16
2023-04-21T03:10:42.695Z,99475.84
2023-04-21T03:13:18.670Z,99468.44
2023-04-21T03:15:48.237Z,99484.03
2023-04-21T03:18:20.589Z,99480.19
2023-04-21T03:21:02.106Z,99484.59
2023-04-21T03:23:30.214Z,99484.53
2023-04-21T03:26:04.684Z,99479.81
2023-04-21T03:28:36.531Z,99483.44
2023-04-21T03:31:05.487Z,99487.09
2023-04-21T03:33:39.577Z,99483.34
2023-04-21T03:36:28.453Z,99482.91
2023-04-21T03:39:12.738Z,99478.59
2023-04-21T03:41:52.171Z,99486.91
2023-04-21T03:44:23.359Z,99485.06
2023-04-21T03:46:54.972Z,99480.34
2023-04-21T03:49:26.903Z,99483.25
2023-04-21T03:52:06.299Z,99481.56
2023-04-21T03:54:34.359Z,99479.06
2023-04-21T03:57:06.888Z,99483.38
2023-04-21T03:59:36.429Z,99488.19
2023-04-21T04:02:08.469Z,99480.47
2023-04-21T04:04:44.784Z,99488.91
2023-04-21T04:07:14.738Z,99486.94
2023-04-21T04:09:51.992Z,99487.72
2023-04-21T04:12:27.601Z,99496.59
2023-04-21T04:14:57.078Z,99502.09
2023-04-21T04:17:27.810Z,99497.28
2023-04-21T04:19:58.242Z,99496.63
2023-04-21T04:22:26.690Z,99496.75
2023-04-21T04:25:06.123Z,99489.00
2023-04-21T04:27:35.630Z,99496.91
2023-04-21T04:30:05.666Z,99506.25
2023-04-21T04:32:34.668Z,99506.41
2023-04-21T04:35:04.600Z,99504.19
2023-04-21T04:37:34.861Z,99515.09
2023-04-21T04:40:13.768Z,99516.78
2023-04-21T04:42:57.945Z,99515.25
2023-04-21T04:45:38.499Z,99518.75
2023-04-21T04:48:15.535Z,99520.16
2023-04-21T04:50:46.344Z,99517.38
2023-04-21T04:53:25.502Z,99515.09
2023-04-21T04:55:56.901Z,99517.78
2023-04-21T04:58:31.786Z,99519.16
2023-04-21T05:01:12.646Z,99515.88
2023-04-21T05:03:43.028Z,99518.59
2023-04-21T05:06:14.139Z,99518.59
2023-04-21T05:08:48.470Z,99521.88
2023-04-21T05:11:19.481Z,99526.78
2023-04-21T05:13:57.494Z,99527.50
2023-04-21T05:16:31.037Z,99536.31
2023-04-21T05:19:11.991Z,99534.75
2023-04-21T05:21:42.426Z,99534.44
2023-04-21T05:24:13.035Z,99537.47
2023-04-21T05:26:51.106Z,99541.72
2023-04-21T05:29:24.327Z,99531.75
2023-04-21T05:31:54.954Z,99548.03
2023-04-21T05:34:34.907Z,99539.09
2023-04-21T05:37:07.121Z,99540.84
2023-04-21T05:39:36.018Z,99543.25
2023-04-21T05:42:06.924Z,99552.47
2023-04-21T05:44:41.017Z,99554.00
2023-04-21T05:47:11.418Z,99554.69
2023-04-21T05:49:45.319Z,99558.47
2023-04-21T05:52:23.609Z,99550.16
2023-04-21T05:54:57.115Z,99554.34
2023-04-21T05:57:26.103Z,99548.63
2023-04-21T05:59:58.162Z,99548.06
2023-04-21T06:02:29.796Z,99552.59
2023-04-21T06:04:59.795Z,99550.84
2023-04-21T06:07:28.586Z,99558.41
2023-04-21T06:10:06.456Z,99553.88
2023-04-21T06:12:37.743Z,99562.41
2023-04-21T06:15:14.286Z,99559.75
2023-04-21T06:17:42.899Z,99562.63
2023-04-21T06:20:20.925Z,99562.41
2023-04-21T06:22:56.317Z,99561.09
2023-04-21T06:25:27.179Z,99559.09
2023-04-21T06:27:58.308Z,99560.38
2023-04-21T06:30:34.514Z,99561.63
2023-04-21T06:33:12.286Z,99562.84
2023-04-21T06:35:49.600Z,99556.75
2023-04-21T06:38:20.279Z,99558.88
2023-04-21T06:40:52.475Z,99564.31
2023-04-21T06:43:21.522Z,99564.22
2023-04-21T06:45:57.877Z,99566.28
2023-04-21T06:48:32.520Z,99564.81
2023-04-21T06:51:05.387Z,99572.53
2023-04-21T06:53:50.056Z,99567.03
2023-04-21T06:56:23.992Z,99565.81
2023-04-21T06:58:54.680Z,99574.22
2023-04-21T07:01:26.832Z,99571.63
2023-04-21T07:03:57.880Z,99558.94
2023-04-21T07:06:29.138Z,99564.59
2023-04-21T07:09:01.503Z,99567.41
2023-04-21T07:11:31.291Z,99572.16
2023-04-21T07:14:02.370Z,99571.53
2023-04-21T07:16:45.996Z,99575.94
2023-04-21T07:19:16.310Z,99579.59
2023-04-21T07:21:52.412Z,99574.03
2023-04-21T07:24:24.663Z,99577.19
2023-04-21T07:27:02.671Z,99575.94
2023-04-21T07:29:32.057Z,99573.72
2023-04-21T07:32:02.835Z,99577.91
2023-04-21T07:34:42.068Z,99570.88
2023-04-21T07:37:11.601Z,99574.41
2023-04-21T07:39:40.041Z,99574.13
2023-04-21T07:42:09.738Z,99575.50
2023-04-21T07:44:39.204Z,99575.19
2023-04-21T07:47:14.019Z,99565.69
2023-04-21T07:49:51.092Z,99574.94
2023-04-21T07:52:21.095Z,99578.84
2023-04-21T07:54:54.021Z,99587.38
2023-04-21T07:57:25.068Z,99582.22
2023-04-21T07:59:56.631Z,99579.19
2023-04-21T08:02:30.710Z,99585.75
2023-04-21T08:04:59.131Z,99589.94
2023-04-21T08:07:28.918Z,99579.88
2023-04-21T08:10:00.702Z,99584.25
2023-04-21T08:12:30.461Z,99578.03
2023-04-21T08:15:05.928Z,99575.03
2023-04-21T08:17:40.701Z,99581.25
2023-04-21T08:20:12.923Z,99583.41
2023-04-21T08:22:48.369Z,99581.41
2023-04-21T08:25:22.970Z,99577.69
2023-04-21T08:27:51.734Z,99574.97
2023-04-21T08:30:29.460Z,99575.66
2023-04-21T08:33:14.055Z,99575.31
2023-04-21T08:35:59.245Z,99576.63
2023-04-21T08:38:31.367Z,99564.84
2023-04-21T08:41:01.162Z,99572.72
2023-04-21T08:43:33.161Z,99567.97
2023-04-21T08:46:11.775Z,99571.47
2023-04-21T08:48:47.732Z,99577.09
2023-04-21T08:51:25.589Z,99569.13
2023-04-21T08:54:04.569Z,99563.97
2023-04-21T08:56:33.954Z,99562.88
2023-04-21T08:59:10.254Z,99559.38
2023-04-21T09:02:15.184Z,99552.47
2023-04-21T09:04:48.041Z,99556.66
2023-04-21T09:07:36.292Z,99571.63
2023-04-21T09:10:07.593Z,99551.34
2023-04-21T09:12:45.406Z,99551.16
2023-04-21T09:15:16.573Z,99549.81
2023-04-21T09:17:49.186Z,99547.75
2023-04-21T09:20:25.732Z,99548.56
2023-04-21T09:22:57.661Z,99549.31
2023-04-21T09:25:26.314Z,99542.19
2023-04-21T09:27:56.137Z,99536.84
2023-04-21T09:30:27.811Z,99545.41
2023-04-21T09:33:00.318Z,99545.06
2023-04-21T09:35:39.338Z,99542.06
2023-04-21T09:38:25.881Z,99547.13
2023-04-21T09:41:01.419Z,99553.66
2023-04-21T09:43:30.784Z,99536.53
2023-04-21T09:46:02.406Z,99534.75
2023-04-21T09:48:41.051Z,99527.50
2023-04-21T09:51:37.427Z,99535.50
2023-04-21T09:56:57.730Z,99535.13
2023-04-21T09:59:30.715Z,99531.41
2023-04-21T10:02:03.580Z,99518.09
2023-04-21T10:04:37.532Z,99522.31
2023-04-21T10:07:13.626Z,99512.97
2023-04-21T10:09:48.264Z,99523.66
2023-04-21T10:12:19.497Z,99519.72
2023-04-21T10:14:50.926Z,99527.72
2023-04-21T10:17:27.899Z,99522.78
2023-04-21T10:20:07.076Z,99509.19
2023-04-21T10:22:42.000Z,99503.59
2023-04-21T10:25:15.768Z,99514.53
2023-04-21T10:27:45.387Z,99511.91
2023-04-21T10:30:29.338Z,99503.16
2023-04-21T10:33:05.636Z,99504.19
2023-04-21T10:36:04.128Z,99507.78
2023-04-21T10:38:58.058Z,99495.91
2023-04-21T10:41:28.316Z,99492.72
2023-04-21T10:43:59.621Z,99489.50
2023-04-21T10:46:36.943Z,99483.66
2023-04-21T10:49:12.893Z,99486.13
2023-04-21T10:52:08.661Z,99486.91
2023-04-21T10:55:07.669Z,99483.81
2023-04-21T10:57:48.077Z,99475.63
2023-04-21T11:00:23.080Z,99475.09
2023-04-21T11:03:02.767Z,99477.84
2023-04-21T11:05:38.966Z,99481.13
2023-04-21T11:08:13.377Z,99472.31
2023-04-21T11:11:11.096Z,99470.91
2023-04-21T11:13:47.277Z,99471.63
2023-04-21T11:16:20.444Z,99468.34
2023-04-21T11:18:51.804Z,99458.31
2023-04-21T11:21:24.810Z,99459.44
2023-04-21T11:24:04.998Z,99456.31
2023-04-21T11:26:45.133Z,99456.72
2023-04-21T11:29:14.766Z,99445.91
2023-04-21T11:31:51.371Z,99448.84
2023-04-21T11:34:24.821Z,99449.47
2023-04-21T11:36:55.868Z,99444.03
2023-04-21T11:39:26.089Z,99441.53
2023-04-21T11:41:58.754Z,99443.03
2023-04-21T11:44:37.739Z,99436.53
2023-04-21T11:47:23.176Z,99438.00
2023-04-21T11:49:58.036Z,99440.25
2023-04-21T11:52:39.473Z,99441.69
2023-04-21T11:55:15.475Z,99438.56
2023-04-21T11:57:56.236Z,99435.59
2023-04-21T12:00:27.644Z,99429.53
2023-04-21T12:02:57.601Z,99435.53
2023-04-21T12:05:38.564Z,99428.28
2023-04-21T12:08:09.801Z,99429.22
2023-04-21T12:10:40.907Z,99423.53
2023-04-21T12:13:13.521Z,99428.50
2023-04-21T12:15:46.126Z,99417.25
2023-04-21T12:18:24.343Z,99417.19
2023-04-21T12:20:56.112Z,99423.25
2023-04-21T12:23:25.259Z,99417.31
2023-04-21T12:25:56.565Z,99406.31
2023-04-21T12:28:38.613Z,99409.53
2023-04-21T12:31:15.726Z,99405.34
2023-04-21T12:33:47.345Z,99410.34
2023-04-21T12:36:22.207Z,99406.78
2023-04-21T12:38:54.384Z,99401.31
2023-04-21T12:41:23.663Z,99401.00
2023-04-21T12:43:57.618Z,99393.22
2023-04-21T12:46:27.385Z,99403.88
2023-04-21T12:48:58.522Z,99400.91
2023-04-21T12:51:31.707Z,99397.38
2023-04-21T12:54:03.227Z,99391.69
2023-04-21T12:56:32.588Z,99391.53
2023-04-21T12:59:12.140Z,99380.09
2023-04-21T13:01:52.431Z,99388.53
2023-04-21T13:04:27.479Z,99379.13
2023-04-21T13:06:58.874Z,99394.47
2023-04-21T13:09:33.495Z,99383.06
2023-04-21T13:12:12.789Z,99386.59
2023-04-21T13:14:46.556Z,99385.31
2023-04-21T13:17:19.332Z,99380.63
2023-04-21T13:19:50.850Z,99371.13
2023-04-21T13:22:21.593Z,99357.47
2023-04-21T13:24:49.633Z,99360.50
2023-04-21T13:27:28.271Z,99361.94
2023-04-21T13:30:03.796Z,99356.34
2023-04-21T13:32:37.137Z,99363.13
2023-04-21T13:35:09.268Z,99367.03
2023-04-21T13:37:41.262Z,99361.47
2023-04-21T13:40:14.657Z,99356.84
2023-04-21T13:42:49.296Z,99347.00
2023-04-21T13:45:27.361Z,99343.81
2023-04-21T13:48:06.951Z,99342.31
2023-04-21T13:50:35.301Z,99336.09
2023-04-21T13:53:07.056Z,99331.66
2023-04-21T13:55:36.702Z,99329.69
2023-04-21T13:58:06.926Z,99327.34
2023-04-21T14:00:44.875Z,99320.38
2023-04-21T14:03:16.782Z,99321.06
2023-04-21T14:05:47.312Z,99315.97
2023-04-21T14:08:16.486Z,99309.69
2023-04-21T14:10:55.154Z,99309.19
2023-04-21T14:13:35.770Z,99310.84
2023-04-21T14:16:32.013Z,99300.88
2023-04-21T14:19:08.302Z,99300.41
2023-04-21T14:21:37.865Z,99299.94
2023-04-21T14:24:07.382Z,99307.56
2023-04-21T14:26:35.801Z,99310.53
2023-04-21T14:29:06.641Z,99295.91
2023-04-21T14:31:36.654Z,99302.50
2023-04-21T14:34:05.565Z,99297.75
2023-04-21T14:36:35.790Z,99301.03
2023-04-21T14:39:05.843Z,99292.03
2023-04-21T14:41:37.809Z,99294.19
2023-04-21T14:44:06.552Z,99280.63
2023-04-21T14:46:37.464Z,99286.66
2023-04-21T14:49:13.774Z,99282.31
2023-04-21T14:51:43.165Z,99286.66
2023-04-21T14:54:14.212Z,99289.03
2023-04-21T14:56:42.262Z,99273.47
2023-04-21T14:59:18.612Z,99272.97
2023-04-21T15:02:08.174Z,99265.28
2023-04-21T15:04:43.175Z,99257.56
2023-04-21T15:07:12.739Z,99264.34
2023-04-21T15:09:45.827Z,99263.78
2023-04-21T15:12:25.674Z,99263.66
2023-04-21T15:14:59.461Z,99266.84
2023-04-21T15:17:34.121Z,99267.75
2023-04-21T15:20:02.722Z,99262.09
2023-04-21T15:22:32.124Z,99257.97
2023-04-21T15:25:03.060Z,99259.91
2023-04-21T15:27:33.491Z,99259.22
2023-04-21T15:30:04.689Z,99258.88
2023-04-21T15:32:51.877Z,99259.16
2023-04-21T15:35:25.208Z,99258.25
2023-04-21T15:38:01.941Z,99254.81
2023-04-21T15:40:34.201Z,99246.72
2023-04-21T15:43:03.813Z,99251.03
2023-04-21T15:45:36.879Z,99249.66
2023-04-21T15:48:12.153Z,99249.38
2023-04-21T15:50:40.445Z,99247.84
2023-04-21T15:53:10.155Z,99248.28
2023-04-21T15:55:38.805Z,99251.97
2023-04-21T15:58:08.462Z,99248.94
2023-04-21T16:00:41.298Z,99237.31
2023-04-21T16:03:25.303Z,99252.44
2023-04-21T16:05:59.505Z,99239.16
2023-04-21T16:08:33.407Z,99237.97
2023-04-21T16:11:02.891Z,99242.34
2023-04-21T16:13:34.835Z,99246.31
2023-04-21T16:16:07.294Z,99250.06
2023-04-21T16:18:42.254Z,99240.91
2023-04-21T16:21:13.409Z,99239.94
2023-04-21T16:23:41.940Z,99239.03
2023-04-21T16:26:19.024Z,99242.94
2023-04-21T16:29:02.228Z,99246.50
2023-04-21T16:31:30.955Z,99249.84
2023-04-21T16:34:00.960Z,99243.59
2023-04-21T16:36:31.471Z,99243.56
2023-04-21T16:39:08.716Z,99242.56
2023-04-21T16:41:40.580Z,99241.75
2023-04-21T16:44:18.373Z,99237.88
2023-04-21T16:46:46.798Z,99247.66
2023-04-21T16:49:21.321Z,99242.47
2023-04-21T16:51:49.548Z,99245.97
2023-04-21T16:54:21.372Z,99238.34
2023-04-21T16:56:51.804Z,99243.41
2023-04-21T16:59:26.412Z,99235.81
2023-04-21T17:01:55.558Z,99235.88
2023-04-21T17:04:33.586Z,99236.31
2023-04-21T17:07:05.111Z,99233.81
2023-04-21T17:09:36.847Z,99235.06
2023-04-21T17:12:08.233Z,99236.09
2023-04-21T17:14:39.178Z,99233.78
2023-04-21T17:17:11.651Z,99240.84
2023-04-21T17:19:41.948Z,99242.22
2023-04-21T17:22:16.133Z,99240.31
2023-04-21T17:24:53.253Z,99241.53
2023-04-21T17:27:25.060Z,99236.53
2023-04-21T17:29:56.890Z,99243.16
2023-04-21T17:32:26.591Z,99241.44
2023-04-21T17:34:59.248Z,99238.25
2023-04-21T17:37:31.081Z,99235.94
2023-04-21T17:40:02.868Z,99245.47
2023-04-21T17:42:32.868Z,99237.88
2023-04-21T17:45:19.792Z,99249.91
2023-04-21T17:47:50.098Z,99241.75
2023-04-21T17:50:32.848Z,99248.31
2023-04-21T17:53:02.987Z,99245.56
2023-04-21T17:55:32.405Z,99243.72
2023-04-21T17:58:12.241Z,99241.16
2023-04-21T18:00:49.649Z,99255.38
2023-04-21T18:03:28.376Z,99245.56
2023-04-21T18:06:02.155Z,99250.34
2023-04-21T18:08:41.240Z,99250.19
2023-04-21T18:11:14.611Z,99251.22
2023-04-21T18:13:52.014Z,99247.50
2023-04-21T18:16:23.032Z,99254.69
2023-04-21T18:18:57.808Z,99260.22
2023-04-21T18:21:36.461Z,99261.34
2023-04-21T18:24:06.832Z,99257.28
2023-04-21T18:26:44.337Z,99265.19
2023-04-21T18:29:17.509Z,99263.97
2023-04-21T18:31:47.739Z,99266.78
2023-04-21T18:34:17.876Z,99266.28
2023-04-21T18:36:50.282Z,99269.91
2023-04-21T18:39:21.332Z,99274.53
2023-04-21T18:42:03.611Z,99279.19
2023-04-21T18:44:45.652Z,99265.47
2023-04-21T18:47:21.124Z,99274.56
2023-04-21T18:49:56.802Z,99276.44
2023-04-21T18:52:43.427Z,99279.03
2023-04-21T18:55:26.202Z,99278.03
2023-04-21T18:57:56.713Z,99279.25
2023-04-21T19:00:25.609Z,99281.38
2023-04-21T19:02:56.896Z,99280.16
2023-04-21T19:05:29.584Z,99280.09
2023-04-21T19:08:10.169Z,99280.72
2023-04-21T19:10:56.824Z,99269.88
2023-04-21T19:13:35.343Z,99272.84
2023-04-21T19:16:10.898Z,99269.78
2023-04-21T19:18:50.003Z,99275.28
2023-04-21T19:21:23.997Z,99274.16
2023-04-21T19:24:12.405Z,99274.31
2023-04-21T19:26:43.318Z,99275.50
2023-04-21T19:29:18.005Z,99271.81
2023-04-21T19:31:47.069Z,99278.84
2023-04-21T19:34:21.097Z,99276.41
2023-04-21T19:36:53.497Z,99271.13
2023-04-21T19:39:35.482Z,99267.59
2023-04-21T19:42:08.107Z,99269.66
2023-04-21T19:44:37.703Z,99271.31
2023-04-21T19:47:10.417Z,99266.47
2023-04-21T19:49:43.624Z,99271.38
2023-04-21T19:52:20.924Z,99271.03
2023-04-21T19:54:55.938Z,99270.63
2023-04-21T19:57:27.154Z,99262.94
2023-04-21T19:59:58.767Z,99257.28
2023-04-21T20:02:37.759Z,99265.91
2023-04-21T20:05:16.241Z,99268.47
2023-04-21T20:07:46.899Z,99259.19
2023-04-21T20:10:25.657Z,99258.72
2023-04-21T20:12:56.243Z,99274.06
2023-04-21T20:15:30.093Z,99265.75
2023-04-21T20:17:59.529Z,99263.22
2023-04-21T20:20:28.911Z,99268.41
2023-04-21T20:23:08.808Z,99266.53
2023-04-21T20:25:40.387Z,99268.50
2023-04-21T20:28:11.612Z,99276.63
2023-04-21T20:30:44.590Z,99270.44
2023-04-21T20:33:19.427Z,99277.81
2023-04-21T20:35:57.075Z,99266.75
2023-04-21T20:38:26.521Z,99278.28
2023-04-21T20:41:02.075Z,99265.38
2023-04-21T20:43:35.302Z,99273.25
2023-04-21T20:46:05.504Z,99272.53
2023-04-21T20:48:33.856Z,99274.00
2023-04-21T20:51:06.217Z,99262.16
2023-04-21T20:53:43.668Z,99277.91
2023-04-21T20:56:20.395Z,99274.38
2023-04-21T20:58:52.057Z,99279.50
2023-04-21T21:01:20.822Z,99274.97
2023-04-21T21:03:54.068Z,99276.03
2023-04-21T21:06:22.843Z,99276.50
2023-04-21T21:09:01.815Z,99280.72
2023-04-21T21:11:41.308Z,99278.97
2023-04-21T21:14:10.587Z,99286.34
2023-04-21T21:16:41.001Z,99281.13
2023-04-21T21:19:09.402Z,99284.34
2023-04-21T21:21:40.323Z,99286.88
2023-04-21T21:24:13.954Z,99295.56
2023-04-21T21:26:55.274Z,99285.47
2023-04-21T21:29:25.093Z,99286.19
2023-04-21T21:31:53.943Z,99298.91
2023-04-21T21:34:33.631Z,99295.63
2023-04-21T21:37:04.059Z,99295.38
2023-04-21T21:39:33.230Z,99302.97
2023-04-21T21:42:08.595Z,99296.56
2023-04-21T21:44:38.058Z,99294.78
2023-04-21T21:47:09.300Z,99303.66
2023-04-21T21:49:41.189Z,99295.41
2023-04-21T21:52:10.088Z,99291.84
2023-04-21T21:54:43.611Z,99306.38
2023-04-21T21:57:23.038Z,99299.13
2023-04-21T21:59:54.643Z,99307.00
2023-04-21T22:02:24.300Z,99301.69
2023-04-21T22:04:55.390Z,99301.69
2023-04-21T22:07:28.128Z,99300.31
2023-04-21T22:09:59.764Z,99302.00
2023-04-21T22:12:32.358Z,99297.34
2023-04-21T22:15:03.372Z,99301.00
2023-04-21T22:17:34.669Z,99298.88
2023-04-21T22:20:06.259Z,99296.50
2023-04-21T22:22:37.456Z,99300.53
2023-04-21T22:25:07.095Z,99297.69
2023-04-21T22:27:43.277Z,99296.34
2023-04-21T22:30:16.362Z,99291.31
2023-04-21T22:32:47.441Z,99294.50
2023-04-21T22:35:32.868Z,99288.81
2023-04-21T22:38:04.034Z,99287.31
2023-04-21T22:40:34.016Z,99283.31
2023-04-21T22:43:07.179Z,99291.00
2023-04-21T22:45:38.257Z,99296.38
2023-04-21T22:48:15.184Z,99289.50
2023-04-21T22:50:45.058Z,99292.84
2023-04-21T22:53:28.256Z,99295.53
2023-04-21T22:56:00.690Z,99296.53
2023-04-21T22:58:31.689Z,99302.56
2023-04-21T23:01:02.361Z,99294.34
2023-04-21T23:03:33.955Z,99302.38
2023-04-21T23:06:03.352Z,99298.34
2023-04-21T23:08:32.193Z,99300.56
2023-04-21T23:11:04.171Z,99299.16
2023-04-21T23:13:36.835Z,99305.06
2023-04-21T23:16:06.485Z,99302.06
2023-04-21T23:18:34.603Z,99300.03
2023-04-21T23:21:08.704Z,99299.34
2023-04-21T23:23:37.018Z,99298.31
2023-04-21T23:26:09.503Z,99285.91
2023-04-21T23:28:39.337Z,99292.81
2023-04-21T23:31:18.705Z,99290.00
2023-04-21T23:33:47.538Z,99290.00
2023-04-21T23:36:16.884Z,99290.47
2023-04-21T23:38:52.582Z,99289.59
2023-04-21T23:41:21.831Z,99289.63
2023-04-21T23:43:54.099Z,99298.34
2023-04-21T23:46:23.887Z,99291.63
2023-04-21T23:48:52.760Z,99287.88
2023-04-21T23:51:22.265Z,99286.78
2023-04-21T23:54:03.909Z,99290.75
2023-04-21T23:56:35.959Z,99291.13
2023-04-21T23:59:09.205Z,99286.75
